createdAt,value
2022-11-09T00:01:03.391Z,57.80
2022-11-09T00:03:30.452Z,57.80
2022-11-09T00:05:59.114Z,57.80
2022-11-09T00:08:26.301Z,58.00
2022-11-09T00:10:54.632Z,57.90
2022-11-09T00:13:22.477Z,57.70
2022-11-09T00:15:50.129Z,57.80
2022-11-09T00:18:18.052Z,57.90
2022-11-09T00:20:47.936Z,57.90
2022-11-09T00:23:16.869Z,57.90
2022-11-09T00:25:44.154Z,58.00
2022-11-09T00:28:11.353Z,58.00
2022-11-09T00:30:38.248Z,58.00
2022-11-09T00:33:05.204Z,57.90
2022-11-09T00:35:32.231Z,58.10
2022-11-09T00:37:59.263Z,58.10
2022-11-09T00:40:26.312Z,58.20
2022-11-09T00:42:53.285Z,58.20
2022-11-09T00:45:20.916Z,58.40
2022-11-09T00:47:48.613Z,58.40
2022-11-09T00:50:16.314Z,58.50
2022-11-09T00:52:44.813Z,58.60
2022-11-09T00:55:11.992Z,58.60
2022-11-09T00:57:38.934Z,58.70
2022-11-09T01:00:06.508Z,58.80
2022-11-09T01:02:33.568Z,58.90
2022-11-09T01:05:00.661Z,58.90
2022-11-09T01:07:27.743Z,58.90
2022-11-09T01:09:54.683Z,58.90
2022-11-09T01:12:24.889Z,58.90
2022-11-09T01:14:51.891Z,59.00
2022-11-09T01:17:19.112Z,59.00
2022-11-09T01:19:47.312Z,59.10
2022-11-09T01:22:16.569Z,59.10
2022-11-09T01:24:43.796Z,59.10
2022-11-09T01:27:10.870Z,59.10
2022-11-09T01:29:37.875Z,59.20
2022-11-09T01:32:05.022Z,59.10
2022-11-09T01:34:32.652Z,59.10
2022-11-09T01:37:02.551Z,59.10
2022-11-09T01:39:30.600Z,59.00
2022-11-09T01:41:57.811Z,59.00
2022-11-09T01:44:28.514Z,59.00
2022-11-09T01:47:00.844Z,59.00
2022-11-09T01:49:43.555Z,58.90
2022-11-09T01:52:30.134Z,58.90
2022-11-09T01:55:07.701Z,58.90
2022-11-09T01:57:41.461Z,58.80
2022-11-09T02:00:13.326Z,58.80
2022-11-09T02:02:49.484Z,58.70
2022-11-09T02:05:22.083Z,58.60
2022-11-09T02:07:52.152Z,58.80
2022-11-09T02:10:24.338Z,58.80
2022-11-09T02:12:53.462Z,58.80
2022-11-09T02:15:21.991Z,58.90
2022-11-09T02:17:52.491Z,59.00
2022-11-09T02:20:20.109Z,59.00
2022-11-09T02:22:48.032Z,59.00
2022-11-09T02:25:16.502Z,59.00
2022-11-09T02:27:45.022Z,59.00
2022-11-09T02:30:13.551Z,59.00
2022-11-09T02:32:40.663Z,59.00
2022-11-09T02:35:08.003Z,59.00
2022-11-09T02:37:40.096Z,59.10
2022-11-09T02:40:18.705Z,59.10
2022-11-09T02:42:47.249Z,59.20
2022-11-09T02:45:15.018Z,59.20
2022-11-09T02:47:43.288Z,59.30
2022-11-09T02:50:10.912Z,59.30
2022-11-09T02:52:38.518Z,59.30
2022-11-09T02:55:06.189Z,59.40
2022-11-09T02:57:33.348Z,59.50
2022-11-09T03:00:01.638Z,59.50
2022-11-09T03:02:30.719Z,59.60
2022-11-09T03:04:59.099Z,59.60
2022-11-09T03:07:27.185Z,59.60
2022-11-09T03:09:55.879Z,59.70
2022-11-09T03:12:31.234Z,59.70
2022-11-09T03:15:08.517Z,59.70
2022-11-09T03:17:38.700Z,59.80
2022-11-09T03:20:06.824Z,59.90
2022-11-09T03:22:34.326Z,59.80
2022-11-09T03:25:01.897Z,59.90
2022-11-09T03:27:30.114Z,60.00
2022-11-09T03:29:57.749Z,59.90
2022-11-09T03:32:24.941Z,60.00
2022-11-09T03:34:52.269Z,60.00
2022-11-09T03:37:19.971Z,59.90
2022-11-09T03:39:46.988Z,59.90
2022-11-09T03:42:14.060Z,60.00
2022-11-09T03:44:41.093Z,59.90
2022-11-09T03:47:08.110Z,60.00
2022-11-09T03:49:35.121Z,60.00
2022-11-09T03:52:02.185Z,60.00
2022-11-09T03:54:29.359Z,60.10
2022-11-09T03:56:56.402Z,60.10
2022-11-09T03:59:23.428Z,60.20
2022-11-09T04:01:50.408Z,60.00
2022-11-09T04:04:17.686Z,60.00
2022-11-09T04:06:44.646Z,60.10
2022-11-09T04:09:11.666Z,60.00
2022-11-09T04:11:38.656Z,60.90
2022-11-09T04:14:05.999Z,60.10
2022-11-09T04:16:33.408Z,60.10
2022-11-09T04:19:00.818Z,60.10
2022-11-09T04:21:27.778Z,60.10
2022-11-09T04:23:54.729Z,60.30
2022-11-09T04:26:21.607Z,60.30
2022-11-09T04:28:49.018Z,60.30
2022-11-09T04:31:16.988Z,60.50
2022-11-09T04:33:44.978Z,60.30
2022-11-09T04:36:12.211Z,60.50
2022-11-09T04:38:39.199Z,60.60
2022-11-09T04:41:08.364Z,60.60
2022-11-09T04:43:35.619Z,60.60
2022-11-09T04:46:03.351Z,60.70
2022-11-09T04:48:31.829Z,60.80
2022-11-09T04:51:03.539Z,60.80
2022-11-09T04:53:30.835Z,61.00
2022-11-09T04:55:58.010Z,61.10
2022-11-09T04:58:25.279Z,61.20
2022-11-09T05:00:53.214Z,61.30
2022-11-09T05:03:20.935Z,61.40
2022-11-09T05:05:48.770Z,61.50
2022-11-09T05:08:15.828Z,61.80
2022-11-09T05:10:42.901Z,61.90
2022-11-09T05:13:12.493Z,62.00
2022-11-09T05:15:40.063Z,62.00
2022-11-09T05:18:08.426Z,62.00
2022-11-09T05:20:36.730Z,62.10
2022-11-09T05:23:22.671Z,62.10
2022-11-09T05:25:49.879Z,62.10
2022-11-09T05:28:17.015Z,62.10
2022-11-09T05:30:43.998Z,62.10
2022-11-09T05:33:11.105Z,62.20
2022-11-09T05:35:38.237Z,62.20
2022-11-09T05:38:05.168Z,62.20
2022-11-09T05:40:33.697Z,62.20
2022-11-09T05:43:00.833Z,62.20
2022-11-09T05:45:44.075Z,62.20
2022-11-09T05:48:14.387Z,62.20
2022-11-09T05:50:42.658Z,62.20
2022-11-09T05:53:14.499Z,62.20
2022-11-09T05:55:41.512Z,62.20
2022-11-09T05:58:09.194Z,62.20
2022-11-09T06:00:37.559Z,62.00
2022-11-09T06:03:10.089Z,62.00
2022-11-09T06:05:41.453Z,62.00
2022-11-09T06:08:14.266Z,61.90
2022-11-09T06:10:42.470Z,61.80
2022-11-09T06:13:10.323Z,61.90
2022-11-09T06:15:38.392Z,61.70
2022-11-09T06:18:05.394Z,61.70
2022-11-09T06:20:33.359Z,61.70
2022-11-09T06:23:03.749Z,61.70
2022-11-09T06:25:33.476Z,61.70
2022-11-09T06:28:01.994Z,61.70
2022-11-09T06:30:29.610Z,61.60
2022-11-09T06:33:00.659Z,61.70
2022-11-09T06:35:28.461Z,61.60
2022-11-09T06:38:00.152Z,61.60
2022-11-09T06:40:28.009Z,61.60
2022-11-09T06:43:02.201Z,61.60
2022-11-09T06:45:30.826Z,61.60
2022-11-09T06:47:59.553Z,61.50
2022-11-09T06:50:29.021Z,61.50
2022-11-09T06:53:07.783Z,61.30
2022-11-09T06:55:36.779Z,61.30
2022-11-09T06:58:09.465Z,61.20
2022-11-09T07:00:37.613Z,61.10
2022-11-09T07:03:04.920Z,61.00
2022-11-09T07:05:32.183Z,60.90
2022-11-09T07:08:00.182Z,60.70
2022-11-09T07:10:27.450Z,60.80
2022-11-09T07:12:58.275Z,60.70
2022-11-09T07:15:25.703Z,60.60
2022-11-09T07:17:57.803Z,60.70
2022-11-09T07:20:25.306Z,60.50
2022-11-09T07:22:52.516Z,61.20
2022-11-09T07:25:20.330Z,60.20
2022-11-09T07:27:47.329Z,60.10
2022-11-09T07:30:14.981Z,60.10
2022-11-09T07:35:30.672Z,60.00
2022-11-09T07:38:01.951Z,59.90
2022-11-09T07:40:29.740Z,59.80
2022-11-09T07:43:01.247Z,59.80
2022-11-09T07:45:29.682Z,60.00
2022-11-09T07:48:01.681Z,60.00
2022-11-09T07:50:30.171Z,60.10
2022-11-09T07:52:59.662Z,60.10
2022-11-09T07:55:28.426Z,60.20
2022-11-09T07:58:00.271Z,60.30
2022-11-09T08:00:29.141Z,60.30
2022-11-09T08:02:56.568Z,60.50
2022-11-09T08:05:23.825Z,60.20
2022-11-09T08:07:59.095Z,60.10
2022-11-09T08:10:27.715Z,59.90
2022-11-09T08:13:00.466Z,59.80
2022-11-09T08:15:27.755Z,59.70
2022-11-09T08:17:54.983Z,59.50
2022-11-09T08:20:22.331Z,59.50
2022-11-09T08:22:49.575Z,59.30
2022-11-09T08:25:16.659Z,58.80
2022-11-09T08:27:43.714Z,58.70
2022-11-09T08:30:14.116Z,58.60
2022-11-09T08:32:43.515Z,58.50
2022-11-09T08:35:13.561Z,58.50
2022-11-09T08:37:41.294Z,58.50
2022-11-09T08:40:08.823Z,58.40
2022-11-09T08:42:36.271Z,58.50
2022-11-09T08:45:04.209Z,58.30
2022-11-09T08:47:32.356Z,58.50
2022-11-09T08:49:59.983Z,58.60
2022-11-09T08:52:27.087Z,58.70
2022-11-09T08:54:54.255Z,58.80
2022-11-09T08:57:21.906Z,59.00
2022-11-09T08:59:49.195Z,59.10
2022-11-09T09:02:16.472Z,59.30
2022-11-09T09:04:43.915Z,59.50
2022-11-09T09:07:10.898Z,59.60
2022-11-09T09:09:38.334Z,59.60
2022-11-09T09:12:07.384Z,59.80
2022-11-09T09:14:35.168Z,60.30
2022-11-09T09:17:02.677Z,60.50
2022-11-09T09:19:29.961Z,61.00
2022-11-09T09:21:56.936Z,61.00
2022-11-09T09:24:23.964Z,61.20
2022-11-09T09:26:51.001Z,61.30
2022-11-09T09:29:19.477Z,61.50
2022-11-09T09:31:47.182Z,61.80
2022-11-09T09:34:15.320Z,62.10
2022-11-09T09:36:47.591Z,62.00
2022-11-09T09:39:17.573Z,62.00
2022-11-09T09:41:52.946Z,62.50
2022-11-09T09:45:02.405Z,63.10
2022-11-09T09:48:05.943Z,63.60
2022-11-09T09:50:43.929Z,63.60
2022-11-09T09:53:59.253Z,63.70
2022-11-09T09:56:31.215Z,64.20
2022-11-09T09:59:22.466Z,64.70
2022-11-09T10:01:50.364Z,64.90
2022-11-09T10:04:23.553Z,65.80
2022-11-09T10:07:15.222Z,65.40
2022-11-09T10:10:07.037Z,65.40
2022-11-09T10:12:52.567Z,65.50
2022-11-09T10:15:29.882Z,65.70
2022-11-09T10:18:22.622Z,65.80
2022-11-09T10:20:53.199Z,66.50
2022-11-09T10:23:38.902Z,67.00
2022-11-09T10:26:18.549Z,67.50
2022-11-09T10:29:15.579Z,67.60
2022-11-09T10:31:45.930Z,67.10
2022-11-09T10:34:39.492Z,66.90
2022-11-09T10:37:22.582Z,66.90
2022-11-09T10:39:56.615Z,66.50
2022-11-09T10:42:46.719Z,66.40
2022-11-09T10:45:34.894Z,66.40
2022-11-09T10:48:32.130Z,65.90
2022-11-09T10:51:36.100Z,66.10
2022-11-09T10:54:33.831Z,66.20
2022-11-09T10:57:22.065Z,66.00
2022-11-09T11:00:17.152Z,66.10
2022-11-09T11:03:17.474Z,65.80
2022-11-09T11:06:18.036Z,65.80
2022-11-09T11:09:06.879Z,66.10
2022-11-09T11:12:16.032Z,66.00
2022-11-09T11:15:01.645Z,66.30
2022-11-09T11:17:47.184Z,66.50
2022-11-09T11:20:35.004Z,66.50
2022-11-09T11:23:23.647Z,66.60
2022-11-09T11:26:40.373Z,66.40
2022-11-09T11:29:39.219Z,66.50
2022-11-09T11:32:24.951Z,66.40
2022-11-09T11:35:35.646Z,66.40
2022-11-09T11:38:39.507Z,66.30
2022-11-09T11:41:43.143Z,65.90
2022-11-09T11:44:34.681Z,65.50
2022-11-09T11:47:34.104Z,64.50
2022-11-09T11:50:33.046Z,63.30
2022-11-09T11:53:47.605Z,63.90
2022-11-09T11:56:38.594Z,63.10
2022-11-09T11:59:46.361Z,62.90
2022-11-09T12:02:41.343Z,62.80
2022-11-09T12:05:50.696Z,62.80
2022-11-09T12:08:39.207Z,62.40
2022-11-09T12:12:03.376Z,62.50
2022-11-09T12:15:16.522Z,62.70
2022-11-09T12:18:31.966Z,62.70
2022-11-09T12:21:24.682Z,62.50
2022-11-09T12:24:44.450Z,62.00
2022-11-09T12:27:45.097Z,61.90
2022-11-09T12:31:00.402Z,61.80
2022-11-09T12:33:58.174Z,61.10
2022-11-09T12:36:57.585Z,61.30
2022-11-09T12:39:47.563Z,61.10
2022-11-09T12:43:07.795Z,61.20
2022-11-09T12:45:54.266Z,60.50
2022-11-09T12:48:41.294Z,60.60
2022-11-09T12:51:26.919Z,60.60
2022-11-09T12:54:12.813Z,60.50
2022-11-09T12:57:11.666Z,60.70
2022-11-09T13:00:00.329Z,60.70
2022-11-09T13:02:58.607Z,60.80
2022-11-09T13:05:46.423Z,60.30
2022-11-09T13:08:32.519Z,59.70
2022-11-09T13:11:21.226Z,59.20
2022-11-09T13:14:31.632Z,59.50
2022-11-09T13:17:31.017Z,59.40
2022-11-09T13:20:53.988Z,59.00
2022-11-09T13:23:59.882Z,59.10
2022-11-09T13:26:54.698Z,59.40
2022-11-09T13:29:40.294Z,59.30
2022-11-09T13:32:27.583Z,59.60
2022-11-09T13:35:41.751Z,59.30
2022-11-09T13:38:32.075Z,59.40
2022-11-09T13:41:44.517Z,59.50
2022-11-09T13:44:34.474Z,58.90
2022-11-09T13:47:26.591Z,58.90
2022-11-09T13:50:34.635Z,59.00
2022-11-09T13:53:39.296Z,58.90
2022-11-09T13:56:38.308Z,59.20
2022-11-09T13:59:29.084Z,58.90
2022-11-09T14:02:21.159Z,59.10
2022-11-09T14:05:22.450Z,59.00
2022-11-09T14:08:22.190Z,59.10
2022-11-09T14:11:31.739Z,59.40
2022-11-09T14:14:39.315Z,59.40
2022-11-09T14:17:33.244Z,59.50
2022-11-09T14:20:33.999Z,59.60
2022-11-09T14:23:24.962Z,59.80
2022-11-09T14:26:18.950Z,59.90
2022-11-09T14:29:34.823Z,60.00
2022-11-09T14:32:30.340Z,60.20
2022-11-09T14:35:20.365Z,60.30
2022-11-09T14:38:29.001Z,60.50
2022-11-09T14:41:25.825Z,60.70
2022-11-09T14:44:25.435Z,60.70
2022-11-09T14:47:33.258Z,60.90
2022-11-09T14:50:28.062Z,61.00
2022-11-09T14:53:22.666Z,61.00
2022-11-09T14:56:11.364Z,61.20
2022-11-09T14:58:58.062Z,61.20
2022-11-09T15:02:02.068Z,61.00
2022-11-09T15:05:03.911Z,61.00
2022-11-09T15:07:49.414Z,61.00
2022-11-09T15:10:36.821Z,60.90
2022-11-09T15:13:49.798Z,61.10
2022-11-09T15:16:35.356Z,61.20
2022-11-09T15:19:52.468Z,61.20
2022-11-09T15:22:44.931Z,61.40
2022-11-09T15:25:52.977Z,61.20
2022-11-09T15:28:47.373Z,61.40
2022-11-09T15:31:32.698Z,61.30
2022-11-09T15:34:29.420Z,61.40
2022-11-09T15:37:28.195Z,61.40
2022-11-09T15:40:18.722Z,62.30
2022-11-09T15:43:05.310Z,61.50
2022-11-09T15:45:51.069Z,61.60
2022-11-09T15:48:36.730Z,61.70
2022-11-09T15:51:22.291Z,61.90
2022-11-09T15:54:08.048Z,62.10
2022-11-09T15:56:53.567Z,62.20
2022-11-09T15:59:39.199Z,62.30
2022-11-09T16:02:25.110Z,62.40
2022-11-09T16:05:10.541Z,62.40
2022-11-09T16:07:56.444Z,62.30
2022-11-09T16:10:43.522Z,62.50
2022-11-09T16:13:28.861Z,62.40
2022-11-09T16:16:16.165Z,62.30
2022-11-09T16:19:04.748Z,62.60
2022-11-09T16:21:55.660Z,62.60
2022-11-09T16:24:41.860Z,62.70
2022-11-09T16:27:48.974Z,62.90
2022-11-09T16:30:35.105Z,63.20
2022-11-09T16:33:21.524Z,62.90
2022-11-09T16:36:13.656Z,63.10
2022-11-09T16:39:09.467Z,63.10
2022-11-09T16:41:55.191Z,63.10
2022-11-09T16:44:42.918Z,63.40
2022-11-09T16:47:29.583Z,63.40
2022-11-09T16:50:16.588Z,64.40
2022-11-09T16:53:02.255Z,63.60
2022-11-09T16:55:48.652Z,63.80
2022-11-09T16:58:34.246Z,63.60
2022-11-09T17:01:23.706Z,63.70
2022-11-09T17:04:09.412Z,63.90
2022-11-09T17:06:55.505Z,64.00
2022-11-09T17:09:41.088Z,64.20
2022-11-09T17:12:26.736Z,64.10
2022-11-09T17:15:13.702Z,64.30
2022-11-09T17:17:59.416Z,64.00
2022-11-09T17:20:51.348Z,64.20
2022-11-09T17:23:37.787Z,64.20
2022-11-09T17:26:24.248Z,64.20
2022-11-09T17:29:10.008Z,64.40
2022-11-09T17:31:55.770Z,64.40
2022-11-09T17:34:41.536Z,64.30
2022-11-09T17:37:27.046Z,64.40
2022-11-09T17:40:12.735Z,64.40
2022-11-09T17:42:59.885Z,64.40
2022-11-09T17:45:45.581Z,64.40
2022-11-09T17:48:33.314Z,64.60
2022-11-09T17:51:20.542Z,64.50
2022-11-09T17:54:06.650Z,64.50
2022-11-09T17:56:52.399Z,64.60
2022-11-09T17:59:38.210Z,64.50
2022-11-09T18:02:24.406Z,64.50
2022-11-09T18:05:11.378Z,64.50
2022-11-09T18:07:57.018Z,65.00
2022-11-09T18:10:44.470Z,64.50
2022-11-09T18:13:30.656Z,64.50
2022-11-09T18:16:18.633Z,64.70
2022-11-09T18:19:05.594Z,64.70
2022-11-09T18:21:51.434Z,64.80
2022-11-09T18:24:37.308Z,64.70
2022-11-09T18:27:28.968Z,64.80
2022-11-09T18:30:16.986Z,64.80
2022-11-09T18:33:02.709Z,64.80
2022-11-09T18:35:59.987Z,64.80
2022-11-09T18:38:46.136Z,65.10
2022-11-09T18:41:32.013Z,65.10
2022-11-09T18:44:17.395Z,65.10
2022-11-09T18:47:05.642Z,65.20
2022-11-09T18:49:52.950Z,65.20
2022-11-09T18:52:38.658Z,65.20
2022-11-09T18:55:25.545Z,65.30
2022-11-09T18:58:11.354Z,65.40
2022-11-09T19:01:02.218Z,65.40
2022-11-09T19:03:48.265Z,65.50
2022-11-09T19:06:35.464Z,66.40
2022-11-09T19:09:31.522Z,65.50
2022-11-09T19:12:18.291Z,65.50
2022-11-09T19:15:04.792Z,65.50
2022-11-09T19:17:50.364Z,65.60
2022-11-09T19:20:39.194Z,65.50
2022-11-09T19:23:32.817Z,65.80
2022-11-09T19:26:23.912Z,65.70
2022-11-09T19:29:11.651Z,65.70
2022-11-09T19:31:59.205Z,65.70
2022-11-09T19:34:46.276Z,65.70
2022-11-09T19:37:32.693Z,65.60
2022-11-09T19:40:19.085Z,65.70
2022-11-09T19:43:04.646Z,65.60
2022-11-09T19:45:50.639Z,65.60
2022-11-09T19:48:36.619Z,65.60
2022-11-09T19:51:23.163Z,65.50
2022-11-09T19:54:12.285Z,65.60
2022-11-09T19:56:58.120Z,65.30
2022-11-09T19:59:43.726Z,65.40
2022-11-09T20:02:29.444Z,65.40
2022-11-09T20:05:15.047Z,65.40
2022-11-09T20:08:03.849Z,65.60
2022-11-09T20:10:49.430Z,65.50
2022-11-09T20:13:37.480Z,65.50
2022-11-09T20:16:22.959Z,65.50
2022-11-09T20:19:12.378Z,65.50
2022-11-09T20:21:57.699Z,65.60
2022-11-09T20:24:43.369Z,65.50
2022-11-09T20:27:32.305Z,65.60
2022-11-09T20:30:20.743Z,65.60
2022-11-09T20:33:07.295Z,65.60
2022-11-09T20:35:54.402Z,65.60
2022-11-09T20:38:39.984Z,65.60
2022-11-09T20:41:25.845Z,65.70
2022-11-09T20:44:12.712Z,65.60
2022-11-09T20:46:58.568Z,65.60
2022-11-09T20:49:47.326Z,65.70
2022-11-09T20:52:32.843Z,65.90
2022-11-09T20:55:18.765Z,65.80
2022-11-09T20:58:04.977Z,66.00
2022-11-09T21:01:22.091Z,66.20
2022-11-09T21:04:08.681Z,66.80
2022-11-09T21:06:54.245Z,66.80
2022-11-09T21:09:40.362Z,66.70
2022-11-09T21:12:27.401Z,66.90
2022-11-09T21:15:15.302Z,67.10
2022-11-09T21:18:00.524Z,67.20
2022-11-09T21:20:46.195Z,67.40
2022-11-09T21:23:50.270Z,67.60
2022-11-09T21:26:54.411Z,67.80
2022-11-09T21:29:52.393Z,67.90
2022-11-09T21:32:40.351Z,67.90
2022-11-09T21:35:27.849Z,68.10
2022-11-09T21:38:13.944Z,68.30
2022-11-09T21:41:06.833Z,69.10
2022-11-09T21:43:56.999Z,68.40
2022-11-09T21:46:44.812Z,68.30
2022-11-09T21:49:31.689Z,68.40
2022-11-09T21:52:17.296Z,68.50
2022-11-09T21:55:02.799Z,68.60
2022-11-09T21:57:49.392Z,68.40
2022-11-09T22:00:35.118Z,68.70
2022-11-09T22:03:21.569Z,68.60
2022-11-09T22:06:08.691Z,69.00
2022-11-09T22:08:54.434Z,69.00
2022-11-09T22:11:58.908Z,68.80
2022-11-09T22:15:02.932Z,68.80
2022-11-09T22:17:48.678Z,68.80
2022-11-09T22:20:53.051Z,68.80
2022-11-09T22:23:39.368Z,68.70
2022-11-09T22:26:26.134Z,68.50
2022-11-09T22:29:12.678Z,68.50
2022-11-09T22:31:59.575Z,68.50
2022-11-09T22:34:46.443Z,69.20
2022-11-09T22:37:33.537Z,68.30
2022-11-09T22:40:19.605Z,68.30
2022-11-09T22:43:05.388Z,68.50
2022-11-09T22:45:51.761Z,68.50
2022-11-09T22:48:38.390Z,68.50
2022-11-09T22:51:24.137Z,68.50
2022-11-09T22:54:10.001Z,68.70
2022-11-09T22:56:56.678Z,69.30
2022-11-09T22:59:42.312Z,68.90
2022-11-09T23:02:28.992Z,69.00
2022-11-09T23:05:15.173Z,69.00
2022-11-09T23:08:00.743Z,69.20
2022-11-09T23:10:55.085Z,69.20
2022-11-09T23:13:40.869Z,69.00
2022-11-09T23:16:26.953Z,69.00
2022-11-09T23:19:12.680Z,69.10
2022-11-09T23:21:58.047Z,69.60
2022-11-09T23:25:02.109Z,68.90
2022-11-09T23:27:53.526Z,69.10
2022-11-09T23:30:39.221Z,69.30
2022-11-09T23:33:25.149Z,69.20
2022-11-09T23:36:10.975Z,69.40
2022-11-09T23:38:56.753Z,69.50
2022-11-09T23:41:43.002Z,69.40
2022-11-09T23:44:28.862Z,69.70
2022-11-09T23:47:14.692Z,70.20
2022-11-09T23:50:00.174Z,70.20
2022-11-09T23:52:45.966Z,70.10
2022-11-09T23:55:31.781Z,70.00
2022-11-09T23:58:17.487Z,70.10
